Manisa, Turkey

5:20 AM EEST on October 02, 2014 (GMT +0300)
Manisa Organize Sanayi Airport | Change Station
CLOSE
Current Station
Airport
Location: Manisa Organize Sanayi Airport,
Elevation: 240 ft
Nearby Weather Stations

Elev 240 ft 38.63 °N, 27.35 °E | Updated 1 hour ago

Clear
Clear
39 °F
Feels Like 39 °F
N
1
Wind Variable Wind from Variable

Today
High -- | Low -- °F
--% Chance of Precip.
Yesterday
High -- | Low -- °F
Precip. -- in
7:06 AM 6:51 PM
First Quarter, 53% visible
Pressure 30.21 in
Visibility -9999.0 miles
Clouds
Dew Point 36 °F
Humidity 87%
Rainfall 0.00 in
Snow Depth Not available.
UV Not available.
Pollen Not available.
Air Quality Not available.
Flu Activity Not available.
METAR LTBZ 020050Z VRB01KT CAVOK 04/02 Q1023

More Conditions Fewer Conditions

Pressure 30.21 in
Visibility -9999.0 miles
Clouds
Dew Point 36 °F
Humidity 87%
Rainfall 0.00 in
Snow Depth Not available.
UV Not available.
Pollen Not available.
Air Quality Not available.
Flu Activity Not available.
METAR LTBZ 020050Z VRB01KT CAVOK 04/02 Q1023

More Conditions Fewer Conditions

10-Day Weather Forecast

Almanac

Astronomy

Oct. 02, 2014 Rise Set
Actual Time 7:06 AM EEST 6:51 PM EEST
Civil Twilight 6:40 AM EEST 7:18 PM EEST
Nautical Twilight 6:09 AM EEST 7:49 PM EEST
Astronomical Twilight 5:38 AM EEST 8:20 PM EEST
Moon 2:38 PM EEST 12:07 AM EEST
Length of Visible Light 12h 38m
Length of Day
11h 45m
Tomorrow will be 2m 28s shorter.
First Quarter, 53% of the Moon is Illuminated
Oct 1
First Quarter
Oct 8
Full
Oct 15
Last Quarter
Oct 23
New
Oct 30
First Quarter

Yesterday's Extremes

Country Highs Country Lows

Community

WunderPhotos

Upload Photos

1,758,142 photos uploaded!

WunderBlogs® & News

Nearby

Snow Depth

Not available.

Earthquake Activity

City Distance Mag. Time & Date
No recent earthquake activity has been reported nearby.
Minimum magnitude displayed is 2.5.

Coastal Water Temperatures

Place Temperature
No Stations Reporting

Nearby Weather Stations